Terminal Aerodrome Forecast
Issued by NWS

Home | Current Version | Previous Version | Text Only | Print | Product List | Glossary On
Versions: 1 2 3 4 5 6 7 8 9 10 11 12 13 14 15 16 17 18 19 20 21 22 23 24 25 26 27 28 29 30 31 32 33
000
FTUS44 KHGX 190900 AAA
TAFIAH
TAF AMD
KIAH 190900Z 1909/2012 16012KT P6SM FEW015 BKN025 BKN250
     FM191600 16013G23KT P6SM SCT015 BKN025
     FM191900 16015G25KT P6SM SCT025 BKN045
     FM192300 15014KT P6SM SCT015 SCT035
     FM200200 14014KT P6SM BKN015
     FM200800 15011KT P6SM BKN008 OVC015=

USA.gov is the U.S. government's official web portal to all federal, state and local government web resources and services.